Latest Weather Observations for Sydney Airport

IDN60801

Issued at 4:32 am EDT Wednesday 1 April 2015 (issued every 30 minutes, with the page automatically refreshed every 10 minutes)

About weather observations | Map of weather stations | Latest weather observations for NSW | Other Formats
Station Details ID: 066037 Name: SYDNEY AIRPORT AMO Lat: -33.95 Lon: 151.17 Height: 6.0 m
Data from the previous 72 hours. | See also: Recent months at Sydney Airport
Date/Time
EDT
Temp
°C
App
Temp
°C
Dew
Point
Rel
Hum
%
Delta-T
°C
Wind Press
QNH
hPa
Press
MSL
hPa
Rain
since 9 am
mm
Dir
 
Spd
km/h
Gust
km/h
Spd
kts
Gust
kts
01/03:30am 18.4 19.2 17.4 94 0.6 NW 9 11 5 6 1024.1 1024.1 21.2
01/03:00am 18.6 19.1 17.4 93 0.7 NW 11 15 6 8 1024.3 1024.3 20.8
01/02:30am 18.9 19.6 17.1 89 1.1 SSW 9 13 5 7 1024.5 1024.5 19.6
01/02:00am 19.0 19.6 17.7 92 0.8 SSW 11 13 6 7 1024.6 1024.6 19.6
01/01:30am 18.3 19.0 17.0 92 0.8 SW 9 11 5 6 1025.0 1025.0 19.6
01/01:00am 18.4 19.0 16.7 90 1.0 WSW 9 11 5 6 1025.2 1025.2 19.6
01/12:30am 18.6 18.9 16.9 90 1.0 WSW 11 11 6 6 1025.5 1025.5 19.6
 
Date/Time
EDT
Temp
°C
App
Temp
°C
Dew
Point
Rel
Hum
%
Delta-T
°C
Wind Press
QNH
hPa
Press
MSL
hPa
Rain
since 9 am
mm
Dir
 
Spd
km/h
Gust
km/h
Spd
kts
Gust
kts
31/11:30pm 19.5 20.3 17.2 86 1.4 SW 9 9 5 5 1025.6 1025.6 19.6
31/11:00pm 20.4 22.9 17.3 82 1.9 CALM 0 9 0 5 1025.9 1025.9 19.6
31/10:30pm 20.7 23.0 16.7 78 2.4 CALM 0 0 0 0 1026.1 1026.1 19.6
31/10:00pm 20.7 21.9 15.8 73 2.9 N 4 7 2 4 1026.1 1026.1 19.6
31/09:30pm 20.4 21.3 16.0 76 2.6 ENE 6 7 3 4 1026.0 1026.0 19.6
31/09:00pm 20.5 20.9 16.3 77 2.5 E 9 11 5 6 1025.9 1025.9 19.6
31/08:30pm 20.3 20.4 16.6 79 2.2 E 11 13 6 7 1025.7 1025.7 19.6
31/08:00pm 20.4 20.5 16.6 79 2.3 ESE 11 13 6 7 1025.5 1025.5 19.6
31/07:30pm 20.8 20.5 16.5 76 2.6 ESE 13 17 7 9 1025.2 1025.2 19.6
31/07:00pm 21.0 20.6 16.3 74 2.8 SE 13 17 7 9 1025.0 1025.0 19.6
31/06:30pm 21.4 20.3 16.4 73 3.0 SE 17 20 9 11 1025.1 1025.1 19.6
31/05:30pm 22.4 21.3 16.3 68 3.7 SE 17 20 9 11 1024.7 1024.7 19.6
31/05:00pm 22.9 20.3 13.3 54 5.5 SE 19 24 10 13 1024.7 1024.7 19.6
31/04:30pm 23.4 21.3 14.6 57 5.2 SE 19 22 10 12 1024.7 1024.7 19.6
31/04:00pm 22.5 21.0 16.2 67 3.8 SSE 19 22 10 12 1024.8 1024.8 19.6
31/03:30pm 21.9 22.0 18.4 80 2.2 S 15 19 8 10 1025.0 1025.0 19.6
31/03:00pm 21.1 21.3 17.7 81 2.1 S 13 17 7 9 1025.0 1025.0 19.6
31/02:30pm 20.4 20.7 17.1 81 2.0 SSW 11 13 6 7 1025.2 1025.2 19.6
31/02:00pm 20.6 21.8 18.3 87 1.4 SW 9 13 5 7 1025.5 1025.5 19.6
31/01:30pm 20.3 21.6 18.5 89 1.1 W 9 15 5 8 1025.7 1025.7 19.6
31/01:10pm 19.7 21.1 17.9 89 1.1 NNW 7 11 4 6 1026.0 1026.0 19.6
31/01:00pm 19.8 20.2 18.2 90 1.0 NE 13 17 7 9 1026.2 1026.2 18.8
31/12:51pm 20.1 20.7 17.6 85 1.5 NE 11 17 6 9 1026.4 1026.4 18.4
31/12:30pm 20.4 21.5 18.0 86 1.5 ESE 9 11 5 6 1026.4 1026.4 18.4
31/12:19pm 20.3 21.4 18.0 87 1.4 S 9 13 5 7 1026.6 1026.6 18.4
31/12:07pm 19.6 20.2 17.6 88 1.2 S 11 19 6 10 1026.7 1026.7 18.4
31/12:00pm 19.3 20.3 17.7 90 1.0 SSW 9 20 5 11 1026.7 1026.7 18.4
31/11:52am 18.8 19.3 17.5 92 0.8 SE 11 22 6 12 1026.8 1026.8 18.4
31/11:47am 19.1 19.7 17.6 91 0.9 NE 11 22 6 12 1026.8 1026.8 18.4
31/11:39am 18.9 17.6 16.7 87 1.3 ENE 19 30 10 16 1026.8 1026.8 14.6
31/11:32am 18.9 16.9 17.4 91 0.9 SSE 24 35 13 19 1027.1 1027.1 2.8
31/11:30am 20.0 17.8 17.9 88 1.3 S 26 35 14 19 1027.1 1027.1 0.8
31/11:28am 20.9 18.7 18.7 87 1.4 S 28 35 15 19 1026.9 1026.9 0.6
31/11:25am 20.7 18.1 18.6 88 1.3 S 30 35 16 19 1026.5 1026.5 0.6
31/11:22am 20.7 18.5 18.8 89 1.2 S 28 37 15 20 1026.4 1026.4 0.2
31/11:00am 21.3 18.5 18.1 82 2.0 S 30 35 16 19 1026.5 1026.5 0.0
31/10:30am 21.2 19.7 18.5 84 1.7 S 24 30 13 16 1026.7 1026.7 0.0
31/09:30am 21.3 20.8 17.9 81 2.1 SSE 17 24 9 13 1026.5 1026.5 0.0
31/09:00am 21.7 20.5 17.5 77 2.6 SSE 20 26 11 14 1026.1 1026.1 10.4
31/08:30am 21.0 20.1 17.7 81 2.0 SSE 19 24 10 13 1025.7 1025.7 10.4
31/08:00am 20.8 20.2 17.5 81 2.0 SE 17 19 9 10 1025.5 1025.5 10.4
31/07:30am 20.4 20.5 17.4 83 1.8 SSE 13 17 7 9 1025.3 1025.3 10.4
31/07:00am 20.0 20.5 17.5 85 1.5 S 11 15 6 8 1025.0 1025.0 10.4
31/06:30am 19.0 21.6 17.5 91 0.9 CALM 0 0 0 0 1024.8 1024.8 10.2
31/05:30am 18.8 20.4 17.0 89 1.1 W 4 6 2 3 1024.3 1024.3 10.2
31/05:00am 18.9 20.2 17.1 89 1.1 WNW 6 7 3 4 1024.2 1024.2 10.2
31/04:30am 19.0 20.1 17.0 88 1.2 W 7 9 4 5 1024.4 1024.4 10.2
31/04:00am 18.8 18.7 17.0 89 1.1 WSW 13 17 7 9 1024.5 1024.5 10.2
31/03:30am 18.9 19.5 16.9 88 1.2 WNW 9 9 5 5 1024.7 1024.7 10.2
31/03:00am 19.2 20.3 16.5 84 1.6 NNW 6 7 3 4 1024.9 1024.9 10.2
31/02:30am 19.4 20.5 16.6 84 1.7 N 6 7 3 4 1025.0 1025.0 10.2
31/02:00am 19.4 21.7 16.7 84 1.6 CALM 0 4 0 2 1025.3 1025.3 10.2
31/01:30am 19.7 19.9 16.7 83 1.8 N 11 11 6 6 1025.4 1025.4 10.2
31/01:00am 19.8 22.0 16.6 82 1.9 CALM 0 0 0 0 1025.5 1025.5 10.2
31/12:30am 19.2 20.7 17.7 91 0.9 N 6 7 3 4 1025.2 1025.2 10.2
31/12:00am 19.8 20.1 17.8 88 1.2 NNE 13 17 7 9 1025.3 1025.3 10.2
 
Date/Time
EDT
Temp
°C
App
Temp
°C
Dew
Point
Rel
Hum
%
Delta-T
°C
Wind Press
QNH
hPa
Press
MSL
hPa
Rain
since 9 am
mm
Dir
 
Spd
km/h
Gust
km/h
Spd
kts
Gust
kts
30/11:30pm 21.3 21.1 16.8 75 2.7 ESE 13 17 7 9 1025.5 1025.5 10.0
30/11:00pm 20.7 20.6 16.9 79 2.3 SE 13 15 7 8 1025.3 1025.3 10.0
30/10:30pm 21.1 21.9 17.3 79 2.3 SE 9 11 5 6 1025.2 1025.2 10.0
30/10:00pm 21.2 21.8 16.7 75 2.7 SSE 9 11 5 6 1025.1 1025.1 10.0
30/09:30pm 21.2 21.6 16.4 74 2.9 SE 9 9 5 5 1025.1 1025.1 10.0
30/09:00pm 21.2 21.5 16.0 72 3.1 ESE 9 11 5 6 1025.1 1025.1 10.0
30/08:30pm 21.3 21.7 16.3 73 3.0 ESE 9 9 5 5 1025.0 1025.0 10.0
30/08:00pm 21.2 22.0 16.4 74 2.9 ESE 7 9 4 5 1024.6 1024.6 10.0
30/07:30pm 21.4 21.4 16.2 72 3.1 ENE 11 15 6 8 1024.2 1024.2 10.0
30/07:00pm 21.9 22.2 16.1 69 3.5 E 9 13 5 7 1024.0 1024.0 10.0
30/06:30pm 22.0 22.1 16.4 70 3.4 ENE 11 13 6 7 1023.8 1023.8 10.0
30/06:00pm 22.3 21.2 15.4 65 4.1 ENE 15 17 8 9 1023.3 1023.3 10.0
30/05:30pm 22.6 20.6 14.0 58 5.0 ENE 17 19 9 10 1023.2 1023.2 10.0
30/05:00pm 22.5 20.9 14.9 62 4.5 E 17 28 9 15 1022.9 1022.9 10.0
30/04:30pm 23.3 21.1 14.5 57 5.2 E 19 26 10 14 1022.5 1022.5 10.0
30/04:00pm 23.1 19.9 14.2 57 5.2 E 24 32 13 17 1022.5 1022.5 10.0
30/03:30pm 23.1 20.8 15.8 63 4.4 NE 22 30 12 16 1022.8 1022.8 10.0
30/03:00pm 24.2 23.5 16.3 61 4.8 ESE 15 22 8 12 1022.8 1022.8 10.0
30/02:30pm 21.5 21.3 16.7 74 2.9 S 13 15 7 8 1022.6 1022.6 9.8
30/02:00pm 23.4 24.4 14.4 57 5.3 NE 2 7 1 4 1022.8 1022.8 9.8
30/01:30pm 21.4 21.2 15.7 70 3.4 ESE 11 13 6 7 1023.0 1023.0 9.8
30/01:00pm 20.5 18.8 16.3 77 2.5 E 20 26 11 14 1023.5 1023.5 9.8
30/12:30pm 20.7 19.4 14.7 68 3.5 E 15 19 8 10 1023.8 1023.8 9.8
30/12:00pm 19.6 17.2 15.3 76 2.5 ESE 22 26 12 14 1023.8 1023.8 9.8
30/11:30am 18.9 15.3 15.3 79 2.1 SE 28 37 15 20 1024.2 1024.2 9.6
30/11:16am 18.3 14.2 15.0 81 1.9 SE 30 35 16 19 1024.1 1024.1 9.4
30/11:00am 17.8 14.2 15.2 85 1.5 SSE 28 35 15 19 1024.4 1024.4 9.2
30/10:50am 17.7 14.9 15.3 86 1.4 SE 24 32 13 17 1024.7 1024.7 9.2
30/10:43am 17.6 14.7 15.0 85 1.5 ESE 24 35 13 19 1024.9 1024.9 9.0
30/10:33am 16.5 10.8 15.1 91 0.8 NE 39 56 21 30 1025.6 1025.6 7.4
30/10:30am 16.6 11.8 14.7 88 1.1 N 33 56 18 30 1026.0 1026.0 6.0
30/10:19am 21.4 21.2 15.7 70 3.4 S 11 19 6 10 1025.5 1025.5 0.0
30/10:13am 21.4 20.5 15.9 71 3.3 S 15 19 8 10 1024.9 1024.9 0.0
30/10:00am 20.3 21.3 17.7 85 1.6 S 9 15 5 8 1024.4 1024.4 0.0
30/09:30am 19.9 20.8 16.7 82 1.9 SW 7 11 4 6 1024.3 1024.3 0.0
30/09:00am 19.9 19.8 16.0 78 2.3 W 11 17 6 9 1024.3 1024.3 0.2
30/08:30am 19.2 18.8 15.3 78 2.3 WNW 11 13 6 7 1024.2 1024.2 0.2
30/08:00am 19.1 18.4 15.3 78 2.2 WNW 13 20 7 11 1023.8 1023.8 0.2
30/07:30am 20.2 20.3 15.5 74 2.8 NNW 9 13 5 7 1023.7 1023.7 0.2
30/07:00am 19.5 18.8 15.4 77 2.4 NW 13 17 7 9 1023.3 1023.3 0.2
30/06:30am 19.2 19.0 15.6 79 2.1 NW 11 13 6 7 1022.8 1022.8 0.2
30/06:00am 19.5 20.0 15.6 78 2.3 NNW 7 9 4 5 1022.4 1022.4 0.2
30/05:30am 19.3 19.5 15.7 79 2.1 NW 9 11 5 6 1022.1 1022.1 0.2
30/05:00am 19.4 20.1 16.0 81 2.0 NW 7 9 4 5 1021.8 1021.8 0.2
30/04:30am 19.3 19.6 15.9 81 2.0 NNW 9 9 5 5 1021.7 1021.7 0.2
30/04:00am 19.3 20.2 16.5 84 1.7 W 7 9 4 5 1021.7 1021.7 0.2
30/03:30am 19.2 19.8 16.7 85 1.5 WSW 9 9 5 5 1021.8 1021.8 0.2
30/03:00am 19.2 19.9 17.0 87 1.3 SSW 9 11 5 6 1021.9 1021.9 0.2
30/02:30am 19.2 20.2 16.9 86 1.4 SW 7 11 4 6 1022.2 1022.2 0.2
30/02:00am 19.3 19.9 16.8 85 1.5 SW 9 9 5 5 1022.4 1022.4 0.2
30/01:30am 19.5 19.9 16.3 82 1.9 SW 9 9 5 5 1022.6 1022.6 0.2
30/01:00am 19.7 20.1 16.4 81 2.0 WSW 9 9 5 5 1022.6 1022.6 0.2
30/12:30am 19.7 19.6 16.0 79 2.2 SW 11 13 6 7 1022.8 1022.8 0.2
30/12:00am 20.0 20.1 16.5 80 2.1 SW 11 13 6 7 1023.0 1023.0 0.2
 
Date/Time
EDT
Temp
°C
App
Temp
°C
Dew
Point
Rel
Hum
%
Delta-T
°C
Wind Press
QNH
hPa
Press
MSL
hPa
Rain
since 9 am
mm
Dir
 
Spd
km/h
Gust
km/h
Spd
kts
Gust
kts
29/11:30pm 20.5 20.8 16.1 76 2.6 WSW 9 11 5 6 1023.1 1023.1 0.2
29/11:00pm 21.2 23.1 16.6 75 2.8 N 2 9 1 5 1023.1 1023.1 0.2
29/10:30pm 22.8 23.7 16.5 67 3.8 NNE 7 9 4 5 1023.0 1023.0 0.2
29/10:00pm 22.6 22.2 16.3 67 3.8 NNE 13 15 7 8 1022.8 1022.8 0.2
29/09:30pm 22.4 21.5 15.9 66 3.9 NNE 15 20 8 11 1022.4 1022.4 0.2
29/09:00pm 22.0 21.0 15.6 67 3.8 NE 15 19 8 10 1022.0 1022.0 0.2
29/08:30pm 21.8 20.7 15.2 66 3.9 NE 15 20 8 11 1022.0 1022.0 0.2
29/08:00pm 22.5 20.6 15.1 63 4.4 NE 19 22 10 12 1021.6 1021.6 0.2
29/07:30pm 22.5 20.4 15.1 63 4.4 NNE 20 26 11 14 1021.4 1021.4 0.2
29/07:00pm 22.8 20.3 15.2 62 4.5 NNE 22 28 12 15 1020.9 1020.9 0.2
29/06:30pm 22.8 19.2 15.2 62 4.5 NE 28 33 15 18 1020.8 1020.8 0.2
29/06:00pm 23.2 20.3 15.1 60 4.8 NE 24 33 13 18 1020.8 1020.8 0.2
29/05:30pm 23.2 19.5 15.1 60 4.8 NE 28 33 15 18 1020.5 1020.5 0.2
29/05:00pm 23.9 20.9 14.8 56 5.4 NE 24 30 13 16 1020.6 1020.6 0.2
29/04:30pm 23.5 20.2 14.9 58 5.1 NE 26 32 14 17 1020.7 1020.7 0.2
29/04:00pm 23.9 20.4 14.6 56 5.5 ENE 26 33 14 18 1020.8 1020.8 0.2
29/03:30pm 24.7 21.2 14.6 53 6.0 ENE 26 33 14 18 1020.7 1020.7 0.2
29/03:00pm 25.2 21.9 14.0 49 6.6 NE 24 33 13 18 1021.0 1021.0 0.2
29/02:30pm 25.9 23.2 13.6 46 7.2 NE 20 28 11 15 1020.9 1020.9 0.2
29/02:00pm 26.1 23.0 13.5 45 7.4 NE 22 30 12 16 1021.4 1021.4 0.2
29/01:30pm 24.3 21.9 12.8 48 6.6 NNE 17 26 9 14 1021.8 1021.8 0.2
29/01:00pm 23.5 21.9 12.8 51 6.1 NNE 13 19 7 10 1022.3 1022.3 0.2
29/12:30pm 24.1 22.1 12.8 49 6.5 N 15 22 8 12 1022.8 1022.8 0.2
29/12:00pm 24.7 23.1 12.9 47 6.8 NNW 13 19 7 10 1023.0 1023.0 0.2
29/11:30am 23.3 22.5 12.8 51 6.0 NNW 9 13 5 7 1023.4 1023.4 0.0
29/11:00am 21.7 20.8 12.5 56 5.2 WNW 9 13 5 7 1023.5 1023.5 0.0
29/10:30am 21.0 19.2 12.0 56 5.0 NW 13 19 7 10 1023.8 1023.8 0.0
29/10:00am 19.9 18.4 11.9 60 4.4 NW 11 15 6 8 1023.8 1023.8 0.0
29/09:30am 19.3 17.7 11.6 61 4.2 NW 11 17 6 9 1023.5 1023.5 0.0
29/09:00am 18.0 16.0 11.6 66 3.5 NW 13 15 7 8 1023.5 1023.5 0.0
29/08:30am 16.5 15.3 11.5 72 2.7 N 9 11 5 6 1023.2 1023.2 0.0
29/08:00am 16.3 14.7 11.5 73 2.6 NW 11 13 6 7 1023.1 1023.1 0.0
29/07:30am 16.5 15.2 11.3 71 2.8 NNW 9 13 5 7 1023.0 1023.0 0.0
29/07:00am 15.8 14.1 11.3 74 2.4 NNW 11 15 6 8 1022.6 1022.6 0.0
29/06:30am 15.9 14.6 11.4 74 2.4 NNW 9 13 5 7 1022.3 1022.3 0.0
29/06:00am 15.7 14.5 11.6 76 2.2 NNW 9 11 5 6 1022.1 1022.1 0.0
29/05:30am 15.4 13.8 11.5 77 2.1 NNW 11 13 6 7 1022.0 1022.0 0.0
29/05:00am 15.6 14.0 11.5 76 2.2 N 11 13 6 7 1022.1 1022.1 0.0

Other Formats:

Comma delimited format used in spreadsheet applications
http://www.bom.gov.au/fwo/IDN60801/IDN60801.94767.axf

JavaScript Object Notation format (JSON) in row-major order
http://www.bom.gov.au/fwo/IDN60801/IDN60801.94767.json